Time;durP1;ratioP1;P1;durP2;ratioP2;P2;SDS_P1;SDS_P2;PMS_P1;PMS_P2;Temp;Humidity;BMP_temperature;BMP_pressure;BME280_temperature;BME280_humidity;BME280_pressure;Samples;Min_cycle;Max_cycle;Signal;HPM_P1;HPM_P2
2022/02/19 00:00:24;;;;;;;;;;;4.80;99.90;;;;;;5056181;28;19920;-76
2022/02/19 00:02:50;;;;;;;;;;;4.80;99.90;;;;;;5068542;28;20365;-76
2022/02/19 00:05:15;;;;;;;;;;;5.00;99.90;;;;;;5068555;28;19909;-76
2022/02/19 00:07:41;;;;;;;;;;;5.00;99.90;;;;;;5067290;28;19909;-75
2022/02/19 00:10:06;;;;;;;;;;;5.00;99.90;;;;;;5067593;28;19912;-76
2022/02/19 00:12:32;;;;;;;;;;;5.00;99.90;;;;;;5068743;28;20278;-76
2022/02/19 00:14:57;;;;;;;;;;;5.10;99.90;;;;;;5069082;28;20384;-76
2022/02/19 00:17:23;;;;;;;;;;;5.00;99.90;;;;;;5067013;28;19958;-75
2022/02/19 00:19:49;;;;;;;;;;;5.10;99.90;;;;;;5070445;28;19908;-76
2022/02/19 00:22:15;;;;;;;;;;;5.20;99.90;;;;;;5071297;28;19916;-76
2022/02/19 00:24:40;;;;;;;;;;;5.20;99.90;;;;;;5071478;28;19909;-76
2022/02/19 00:27:06;;;;;;;;;;;5.30;99.90;;;;;;5071483;28;20041;-76
2022/02/19 00:29:31;;;;;;;;;;;5.30;99.90;;;;;;5071251;28;20293;-76
2022/02/19 00:31:57;;;;;;;;;;;5.30;99.90;;;;;;5071053;28;19909;-75
2022/02/19 00:34:22;;;;;;;;;;;5.20;99.90;;;;;;5069803;28;20342;-76
2022/02/19 00:36:48;;;;;;;;;;;5.10;99.90;;;;;;5071621;28;19915;-76
2022/02/19 00:39:13;;;;;;;;;;;5.20;99.90;;;;;;5071437;28;20044;-74
2022/02/19 00:41:39;;;;;;;;;;;5.20;99.90;;;;;;5071278;28;20003;-76
2022/02/19 00:44:06;;;;;;;;;;;5.20;99.90;;;;;;5071138;28;20262;-75
2022/02/19 00:46:31;;;;;;;;;;;5.20;99.90;;;;;;5070666;28;19915;-76
2022/02/19 00:48:59;;;;;;;;;;;5.20;99.90;;;;;;5068265;28;19909;-76
2022/02/19 00:51:24;;;;;;;;;;;5.10;99.90;;;;;;5069111;28;19959;-75
2022/02/19 00:53:50;;;;;;;;;;;4.90;99.90;;;;;;5071000;28;19912;-75
2022/02/19 00:56:16;;;;;;;;;;;4.90;99.90;;;;;;5071209;28;19909;-76
2022/02/19 00:58:41;;;;;;;;;;;4.90;99.90;;;;;;5070104;28;19909;-76
2022/02/19 01:01:07;;;;;;;;;;;5.10;99.90;;;;;;5071008;28;19909;-75
2022/02/19 01:03:32;;;;;;;;;;;5.10;99.90;;;;;;5070943;28;19965;-75
2022/02/19 01:05:58;;;;;;;;;;;5.20;99.90;;;;;;5071134;28;20285;-75
2022/02/19 01:08:24;;;;;;;;;;;5.30;99.20;;;;;;5071031;28;19909;-76
2022/02/19 01:10:49;;;;;;;;;;;5.30;99.70;;;;;;5071035;28;20062;-75
2022/02/19 01:13:15;;;;;;;;;;;5.40;99.40;;;;;;5069025;28;19912;-75
2022/02/19 01:15:42;;;;;;;;;;;5.40;98.60;;;;;;5070366;28;19916;-76
2022/02/19 01:18:07;;;;;;;;;;;5.40;98.00;;;;;;5071038;28;20426;-76
2022/02/19 01:20:33;;;;;;;;;;;5.40;97.80;;;;;;5069754;28;19909;-76
2022/02/19 01:22:59;;;;;;;;;;;5.30;98.60;;;;;;5069559;28;19920;-75
2022/02/19 01:25:24;;;;;;;;;;;5.30;98.30;;;;;;5070816;28;19908;-75
2022/02/19 01:27:50;;;;;;;;;;;5.30;97.50;;;;;;5070895;28;19912;-75
2022/02/19 01:30:16;;;;;;;;;;;5.30;97.60;;;;;;5070578;28;19912;-74
2022/02/19 01:32:41;;;;;;;;;;;5.30;96.90;;;;;;5070758;28;20365;-75
2022/02/19 01:35:07;;;;;;;;;;;5.30;96.20;;;;;;5070643;28;19962;-74
2022/02/19 01:37:32;;;;;;;;;;;5.40;96.50;;;;;;5069466;28;19908;-76
2022/02/19 01:39:58;;;;;;;;;;;5.10;97.40;;;;;;5070946;28;19909;-75
2022/02/19 01:42:23;;;;;;;;;;;5.10;96.90;;;;;;5069979;28;19909;-75
2022/02/19 01:44:50;;;;;;;;;;;5.00;97.50;;;;;;5072685;28;19913;-74
2022/02/19 01:47:16;;;;;;;;;;;5.00;97.00;;;;;;5074430;28;20284;-75
2022/02/19 01:49:42;;;;;;;;;;;5.00;96.70;;;;;;5074545;28;19913;-75
2022/02/19 01:52:11;;;;;;;;;;;5.00;97.10;;;;;;5074216;28;19962;-74
2022/02/19 01:54:37;;;;;;;;;;;4.90;97.40;;;;;;5073694;28;19912;-75
2022/02/19 01:57:03;;;;;;;;;;;4.90;97.60;;;;;;5074235;28;19962;-75
2022/02/19 01:59:29;;;;;;;;;;;4.70;97.70;;;;;;5073994;28;19960;-75
2022/02/19 02:01:55;;;;;;;;;;;4.90;96.90;;;;;;5074212;28;19908;-75
2022/02/19 02:04:20;;;;;;;;;;;4.90;96.90;;;;;;5072564;28;19909;-76
2022/02/19 02:06:47;;;;;;;;;;;4.80;97.30;;;;;;5074180;28;19912;-75
2022/02/19 02:09:14;;;;;;;;;;;4.70;97.50;;;;;;5074243;28;19944;-75
2022/02/19 02:11:39;;;;;;;;;;;4.60;98.30;;;;;;5071924;28;19951;-75
2022/02/19 02:14:06;;;;;;;;;;;4.60;98.00;;;;;;5073420;28;20393;-75
2022/02/19 02:16:32;;;;;;;;;;;4.50;98.20;;;;;;5073647;28;20430;-75
2022/02/19 02:18:58;;;;;;;;;;;4.50;98.50;;;;;;5074010;28;19908;-75
2022/02/19 02:21:23;;;;;;;;;;;4.50;98.40;;;;;;5073695;28;19916;-76
2022/02/19 02:23:49;;;;;;;;;;;4.50;98.20;;;;;;5073767;28;19955;-76
2022/02/19 02:26:14;;;;;;;;;;;4.50;98.60;;;;;;5073797;28;19908;-74
2022/02/19 02:28:40;;;;;;;;;;;4.60;97.60;;;;;;5073519;28;19916;-74
2022/02/19 02:31:05;;;;;;;;;;;4.50;97.70;;;;;;5073769;28;20414;-75
2022/02/19 02:33:31;;;;;;;;;;;4.50;97.50;;;;;;5073661;28;19915;-75
2022/02/19 02:35:56;;;;;;;;;;;4.50;97.50;;;;;;5073747;28;19920;-75
2022/02/19 02:38:22;;;;;;;;;;;4.50;97.30;;;;;;5073828;28;19944;-75
2022/02/19 02:40:47;;;;;;;;;;;4.40;97.90;;;;;;5073466;28;19974;-74
2022/02/19 02:43:13;;;;;;;;;;;4.50;97.10;;;;;;5072142;28;19915;-75
2022/02/19 02:45:38;;;;;;;;;;;4.50;97.40;;;;;;5073262;28;19908;-74
2022/02/19 02:48:04;;;;;;;;;;;4.50;97.10;;;;;;5073369;28;19909;-75
2022/02/19 02:50:29;;;;;;;;;;;4.50;96.90;;;;;;5071973;28;20387;-75
2022/02/19 02:52:55;;;;;;;;;;;4.30;97.50;;;;;;5073109;28;19948;-75
2022/02/19 02:55:20;;;;;;;;;;;4.40;97.10;;;;;;5071911;28;20262;-75
2022/02/19 02:57:46;;;;;;;;;;;4.30;97.10;;;;;;5073097;28;19943;-75
2022/02/19 03:00:13;;;;;;;;;;;4.40;96.70;;;;;;5073234;28;19908;-75
2022/02/19 03:02:39;;;;;;;;;;;4.50;96.30;;;;;;5073054;28;19908;-75
2022/02/19 03:05:05;;;;;;;;;;;4.50;96.20;;;;;;5081923;28;19998;-75
2022/02/19 03:07:31;;;;;;;;;;;4.30;96.70;;;;;;5072956;28;19909;-74
2022/02/19 03:09:57;;;;;;;;;;;4.30;97.20;;;;;;5071890;28;19919;-74
2022/02/19 03:12:23;;;;;;;;;;;4.40;96.80;;;;;;5072560;28;19978;-75
2022/02/19 03:14:49;;;;;;;;;;;4.40;96.70;;;;;;5072327;28;19915;-75
2022/02/19 03:17:14;;;;;;;;;;;4.30;96.70;;;;;;5072717;28;19916;-75
2022/02/19 03:19:40;;;;;;;;;;;4.30;96.50;;;;;;5072856;28;19909;-75
2022/02/19 03:22:06;;;;;;;;;;;4.40;96.50;;;;;;5072506;28;19908;-74
2022/02/19 03:24:31;;;;;;;;;;;4.40;96.30;;;;;;5071393;28;19912;-75
2022/02/19 03:26:58;;;;;;;;;;;4.50;96.10;;;;;;5071414;28;19908;-75
2022/02/19 03:29:24;;;;;;;;;;;4.60;95.60;;;;;;5072658;28;19908;-75
2022/02/19 03:31:50;;;;;;;;;;;4.60;95.40;;;;;;5072350;28;19916;-75
2022/02/19 03:34:15;;;;;;;;;;;4.60;95.40;;;;;;5072322;28;20365;-75
2022/02/19 03:36:41;;;;;;;;;;;4.60;95.70;;;;;;5072383;28;20125;-75
2022/02/19 03:39:06;;;;;;;;;;;4.60;95.40;;;;;;5072447;28;20018;-75
2022/02/19 03:41:34;;;;;;;;;;;4.60;95.10;;;;;;5071950;28;20430;-75
2022/02/19 03:44:00;;;;;;;;;;;4.70;94.90;;;;;;5071175;28;20057;-75
2022/02/19 03:46:25;;;;;;;;;;;4.50;95.50;;;;;;5072147;28;19973;-75
2022/02/19 03:48:51;;;;;;;;;;;4.50;95.50;;;;;;5072097;28;19912;-75
2022/02/19 03:51:16;;;;;;;;;;;4.50;95.20;;;;;;5071885;28;19923;-75
2022/02/19 03:53:42;;;;;;;;;;;4.40;95.60;;;;;;5071801;28;19931;-75
2022/02/19 03:56:07;;;;;;;;;;;4.40;95.40;;;;;;5071868;28;19966;-75
2022/02/19 03:58:34;;;;;;;;;;;4.40;95.50;;;;;;5081084;28;19909;-75
2022/02/19 04:01:00;;;;;;;;;;;4.20;96.10;;;;;;5079216;28;19965;-74
2022/02/19 04:03:26;;;;;;;;;;;4.00;96.30;;;;;;5075729;28;20003;-75
2022/02/19 04:05:51;;;;;;;;;;;4.20;95.70;;;;;;5071774;28;20013;-75
2022/02/19 04:08:17;;;;;;;;;;;4.20;95.90;;;;;;5070627;28;19912;-75
2022/02/19 04:10:42;;;;;;;;;;;3.90;96.50;;;;;;5071837;28;19936;-75
2022/02/19 04:13:08;;;;;;;;;;;3.80;96.70;;;;;;5070516;28;20273;-75
2022/02/19 04:15:33;;;;;;;;;;;3.80;96.70;;;;;;5071378;28;20054;-74
2022/02/19 04:17:59;;;;;;;;;;;3.90;95.90;;;;;;5078965;28;19912;-74
2022/02/19 04:20:25;;;;;;;;;;;4.20;95.40;;;;;;5065467;28;20353;-75
2022/02/19 04:22:50;;;;;;;;;;;4.00;95.40;;;;;;5071351;28;20327;-75
2022/02/19 04:25:16;;;;;;;;;;;3.90;95.60;;;;;;5071093;28;19913;-75
2022/02/19 04:27:41;;;;;;;;;;;3.90;95.70;;;;;;5071602;28;19909;-75
2022/02/19 04:30:07;;;;;;;;;;;3.90;95.80;;;;;;5071466;28;20262;-75
2022/02/19 04:32:33;;;;;;;;;;;3.80;96.10;;;;;;5071378;28;19954;-74
2022/02/19 04:34:58;;;;;;;;;;;3.70;96.20;;;;;;5071198;28;19912;-75
2022/02/19 04:37:24;;;;;;;;;;;3.90;96.00;;;;;;5071403;28;19970;-75
2022/02/19 04:39:50;;;;;;;;;;;3.70;96.30;;;;;;5069695;28;19909;-75
2022/02/19 04:42:16;;;;;;;;;;;3.60;96.80;;;;;;5071050;28;19912;-75
2022/02/19 04:44:41;;;;;;;;;;;3.60;96.30;;;;;;5070525;28;19913;-73
2022/02/19 04:47:07;;;;;;;;;;;3.60;96.70;;;;;;5071510;28;20277;-75
2022/02/19 04:49:32;;;;;;;;;;;3.70;95.90;;;;;;5071145;28;19915;-75
2022/02/19 04:51:58;;;;;;;;;;;3.50;96.10;;;;;;5071011;28;19908;-75
2022/02/19 04:54:23;;;;;;;;;;;3.50;95.70;;;;;;5069407;28;19912;-75
2022/02/19 04:56:49;;;;;;;;;;;3.60;94.90;;;;;;5071093;28;20003;-75
2022/02/19 04:59:14;;;;;;;;;;;3.70;93.70;;;;;;5069812;28;19913;-74
2022/02/19 05:01:40;;;;;;;;;;;3.60;93.50;;;;;;5070882;28;19912;-74
2022/02/19 05:04:05;;;;;;;;;;;3.50;93.60;;;;;;5071056;28;19995;-75
2022/02/19 05:06:31;;;;;;;;;;;3.40;93.70;;;;;;5071054;28;20197;-75
2022/02/19 05:08:56;;;;;;;;;;;3.50;93.30;;;;;;5070901;28;19912;-74
2022/02/19 05:11:22;;;;;;;;;;;3.40;93.40;;;;;;5070792;28;19912;-74
2022/02/19 05:13:47;;;;;;;;;;;3.30;93.70;;;;;;5069811;28;20277;-75
2022/02/19 05:16:13;;;;;;;;;;;3.20;93.40;;;;;;5070638;28;20335;-75
2022/02/19 05:18:38;;;;;;;;;;;3.20;93.30;;;;;;5072055;28;19920;-75
2022/02/19 05:21:04;;;;;;;;;;;3.10;93.50;;;;;;5061920;28;19948;-75
2022/02/19 05:23:29;;;;;;;;;;;3.20;93.00;;;;;;5074507;28;19913;-74
2022/02/19 05:25:55;;;;;;;;;;;3.40;92.70;;;;;;5074711;28;19932;-74
2022/02/19 05:28:21;;;;;;;;;;;3.30;92.80;;;;;;5074686;28;19912;-74
2022/02/19 05:30:47;;;;;;;;;;;3.20;92.60;;;;;;5074788;28;19914;-75
2022/02/19 05:33:12;;;;;;;;;;;3.30;92.50;;;;;;5074381;28;20046;-74
2022/02/19 05:35:38;;;;;;;;;;;3.10;92.90;;;;;;5074696;28;20410;-75
2022/02/19 05:38:03;;;;;;;;;;;3.20;92.50;;;;;;5074588;28;19916;-75
2022/02/19 05:40:29;;;;;;;;;;;3.40;92.00;;;;;;5074485;28;19909;-75
2022/02/19 05:42:54;;;;;;;;;;;3.20;92.40;;;;;;5076286;28;19915;-75
2022/02/19 05:45:20;;;;;;;;;;;3.20;92.90;;;;;;5075656;28;20054;-75
2022/02/19 05:47:46;;;;;;;;;;;3.00;92.70;;;;;;5074346;28;20408;-75
2022/02/19 05:50:12;;;;;;;;;;;3.00;92.60;;;;;;5074408;28;19912;-76
2022/02/19 05:52:37;;;;;;;;;;;3.10;92.70;;;;;;5074251;28;20003;-75
2022/02/19 05:55:03;;;;;;;;;;;2.90;93.30;;;;;;5073855;28;19913;-74
2022/02/19 05:57:28;;;;;;;;;;;2.90;93.30;;;;;;5074312;28;19958;-75
2022/02/19 05:59:54;;;;;;;;;;;2.80;93.50;;;;;;5074185;28;20437;-75
2022/02/19 06:02:19;;;;;;;;;;;2.80;93.40;;;;;;5074044;28;19908;-75
2022/02/19 06:04:45;;;;;;;;;;;2.90;93.20;;;;;;5073846;28;19916;-74
2022/02/19 06:07:11;;;;;;;;;;;3.00;93.00;;;;;;5073990;28;19917;-75
2022/02/19 06:09:36;;;;;;;;;;;2.70;93.40;;;;;;5074258;28;19909;-75
2022/02/19 06:12:02;;;;;;;;;;;2.60;93.60;;;;;;5073501;28;19916;-75
2022/02/19 06:14:27;;;;;;;;;;;2.60;93.70;;;;;;5072328;28;20270;-74
2022/02/19 06:16:53;;;;;;;;;;;2.80;93.10;;;;;;5072477;28;19916;-76
2022/02/19 06:19:18;;;;;;;;;;;2.60;93.30;;;;;;5074158;28;19916;-75
2022/02/19 06:21:44;;;;;;;;;;;2.70;93.40;;;;;;5073568;28;19919;-75
2022/02/19 06:24:09;;;;;;;;;;;2.60;93.30;;;;;;5073771;28;20403;-75
2022/02/19 06:26:35;;;;;;;;;;;2.60;93.30;;;;;;5074248;28;19916;-75
2022/02/19 06:29:00;;;;;;;;;;;2.60;93.20;;;;;;5074061;28;19909;-75
2022/02/19 06:31:26;;;;;;;;;;;2.50;93.70;;;;;;5072647;28;20414;-74
2022/02/19 06:33:51;;;;;;;;;;;2.60;93.50;;;;;;5074118;28;19908;-75
2022/02/19 06:36:18;;;;;;;;;;;2.50;93.60;;;;;;5072222;28;20387;-75
2022/02/19 06:38:43;;;;;;;;;;;2.50;93.60;;;;;;5072316;28;19908;-75
2022/02/19 06:41:09;;;;;;;;;;;2.30;94.10;;;;;;5074112;28;19918;-75
2022/02/19 06:43:35;;;;;;;;;;;2.20;94.80;;;;;;5073547;28;19909;-75
2022/02/19 06:46:01;;;;;;;;;;;2.20;94.80;;;;;;5072290;28;19909;-75
2022/02/19 06:48:26;;;;;;;;;;;2.30;94.80;;;;;;5073845;28;19909;-75
2022/02/19 06:50:53;;;;;;;;;;;2.40;94.20;;;;;;5074239;28;20360;-75
2022/02/19 06:53:19;;;;;;;;;;;2.50;94.10;;;;;;5073509;28;19982;-75
2022/02/19 06:55:45;;;;;;;;;;;2.50;94.40;;;;;;5074093;28;20277;-75
2022/02/19 06:58:10;;;;;;;;;;;2.50;93.90;;;;;;5073816;28;19989;-75
2022/02/19 07:00:35;;;;;;;;;;;2.60;93.90;;;;;;5073921;28;20289;-75
2022/02/19 07:03:01;;;;;;;;;;;2.70;94.10;;;;;;5072542;28;19954;-75
2022/02/19 07:05:26;;;;;;;;;;;2.70;93.50;;;;;;5073719;28;20369;-75
2022/02/19 07:07:52;;;;;;;;;;;2.80;93.60;;;;;;5073685;28;19908;-75
2022/02/19 07:10:17;;;;;;;;;;;2.90;94.20;;;;;;5073936;28;20285;-75
2022/02/19 07:12:44;;;;;;;;;;;2.90;93.50;;;;;;5072634;28;19909;-75
2022/02/19 07:15:11;;;;;;;;;;;2.90;94.40;;;;;;5072813;28;19913;-75
2022/02/19 07:17:50;;;;;;;;;;;2.90;94.50;;;;;;5073302;28;19920;-75
2022/02/19 07:20:16;;;;;;;;;;;3.00;94.40;;;;;;5074064;28;19915;-75
2022/02/19 07:22:41;;;;;;;;;;;3.10;94.30;;;;;;5071886;28;19912;-75
2022/02/19 07:25:07;;;;;;;;;;;3.30;94.20;;;;;;5073835;28;19909;-76
2022/02/19 07:27:37;;;;;;;;;;;3.30;94.30;;;;;;5072200;28;19909;-76
2022/02/19 07:30:03;;;;;;;;;;;3.40;94.40;;;;;;5073201;28;19919;-75
2022/02/19 07:32:29;;;;;;;;;;;3.50;94.10;;;;;;5072768;28;19940;-75
2022/02/19 07:34:54;;;;;;;;;;;3.60;93.70;;;;;;5074725;28;20276;-75
2022/02/19 07:37:20;;;;;;;;;;;3.60;93.90;;;;;;5073202;28;19915;-76
2022/02/19 07:39:45;;;;;;;;;;;3.70;94.10;;;;;;5072988;28;20381;-75
2022/02/19 07:42:11;;;;;;;;;;;3.70;93.90;;;;;;5071706;28;19987;-76
2022/02/19 07:44:36;;;;;;;;;;;3.70;93.90;;;;;;5072905;28;19912;-75
2022/02/19 07:47:02;;;;;;;;;;;3.70;93.90;;;;;;5074132;28;19978;-75
2022/02/19 08:00:24;;;;;;;;;;;4.10;92.70;;;;;;5072906;28;19920;-75
2022/02/19 08:02:49;;;;;;;;;;;4.30;93.20;;;;;;5072589;28;19916;-76
2022/02/19 08:05:15;;;;;;;;;;;4.40;93.40;;;;;;5072635;28;19909;-76
2022/02/19 08:07:40;;;;;;;;;;;4.60;92.60;;;;;;5072822;28;20491;-76
2022/02/19 08:10:06;;;;;;;;;;;4.70;92.60;;;;;;5073473;28;19966;-75
2022/02/19 08:12:32;;;;;;;;;;;4.80;92.70;;;;;;5071956;28;19955;-76
2022/02/19 08:14:57;;;;;;;;;;;5.00;92.30;;;;;;5063910;28;19920;-76
2022/02/19 08:17:23;;;;;;;;;;;4.90;92.50;;;;;;5071708;28;20029;-76
2022/02/19 08:19:49;;;;;;;;;;;4.90;92.40;;;;;;5070823;28;20326;-75
2022/02/19 08:22:15;;;;;;;;;;;5.00;92.60;;;;;;5071002;28;19908;-75
2022/02/19 08:24:40;;;;;;;;;;;4.80;92.80;;;;;;5070930;28;19954;-76
2022/02/19 08:27:06;;;;;;;;;;;4.90;91.70;;;;;;5070516;28;19962;-76
2022/02/19 08:29:31;;;;;;;;;;;4.90;92.50;;;;;;5070384;28;19909;-76
2022/02/19 08:31:57;;;;;;;;;;;4.90;92.60;;;;;;5071185;28;19912;-75
2022/02/19 08:34:22;;;;;;;;;;;5.00;92.40;;;;;;5074878;28;20369;-76
2022/02/19 08:36:48;;;;;;;;;;;5.10;92.20;;;;;;5073394;28;19912;-75
2022/02/19 08:39:13;;;;;;;;;;;5.00;92.00;;;;;;5074602;28;20334;-76
2022/02/19 08:41:40;;;;;;;;;;;6.80;90.80;;;;;;5071194;28;19912;-76
2022/02/19 08:44:06;;;;;;;;;;;8.30;85.80;;;;;;5070736;28;19954;-77
2022/02/19 08:46:31;;;;;;;;;;;8.10;83.40;;;;;;5071469;28;19943;-75
2022/02/19 08:48:57;;;;;;;;;;;9.30;80.80;;;;;;5075056;28;19950;-77
2022/02/19 08:51:22;;;;;;;;;;;9.00;81.40;;;;;;5069583;28;19913;-76
2022/02/19 08:53:48;;;;;;;;;;;7.60;82.10;;;;;;5070257;28;19912;-75
2022/02/19 08:56:13;;;;;;;;;;;7.30;83.20;;;;;;5076991;28;20358;-75
2022/02/19 08:58:39;;;;;;;;;;;9.20;79.50;;;;;;5074410;28;19936;-77
2022/02/19 09:01:04;;;;;;;;;;;10.00;75.20;;;;;;5071312;28;19909;-76
2022/02/19 09:03:30;;;;;;;;;;;9.70;76.70;;;;;;5070870;28;19908;-76
2022/02/19 09:05:55;;;;;;;;;;;10.00;74.10;;;;;;5067118;28;20414;-77
2022/02/19 09:08:21;;;;;;;;;;;10.10;74.40;;;;;;5071463;28;19908;-76
2022/02/19 09:10:46;;;;;;;;;;;9.50;74.20;;;;;;5070608;28;19923;-77
2022/02/19 09:13:12;;;;;;;;;;;9.60;76.30;;;;;;5069741;28;19977;-74
2022/02/19 09:15:38;;;;;;;;;;;8.80;76.00;;;;;;5073464;28;19912;-77
2022/02/19 09:18:04;;;;;;;;;;;9.50;75.10;;;;;;5066211;28;19920;-77
2022/02/19 09:20:29;;;;;;;;;;;11.40;71.40;;;;;;5061251;28;19913;-76
2022/02/19 09:22:55;;;;;;;;;;;9.40;73.70;;;;;;5066810;28;19908;-77
2022/02/19 09:25:20;;;;;;;;;;;10.70;75.00;;;;;;5065664;28;19933;-75
2022/02/19 09:27:46;;;;;;;;;;;11.90;69.50;;;;;;5062323;28;19931;-75
2022/02/19 09:30:12;;;;;;;;;;;12.10;68.40;;;;;;5061189;28;20398;-75
2022/02/19 09:32:38;;;;;;;;;;;12.70;66.60;;;;;;5069312;28;20385;-77
2022/02/19 09:35:05;;;;;;;;;;;12.20;66.60;;;;;;5072113;28;19908;-77
2022/02/19 09:37:30;;;;;;;;;;;12.00;67.80;;;;;;5076386;28;19947;-77
2022/02/19 09:39:56;;;;;;;;;;;11.40;66.80;;;;;;5073937;28;20328;-77
2022/02/19 09:42:22;;;;;;;;;;;10.80;68.70;;;;;;5071544;28;19908;-77
2022/02/19 09:44:48;;;;;;;;;;;11.50;70.20;;;;;;5074552;28;19915;-77
2022/02/19 09:47:15;;;;;;;;;;;10.30;71.00;;;;;;5073322;28;20341;-78
2022/02/19 09:49:41;;;;;;;;;;;12.50;66.70;;;;;;5071164;28;19931;-75
2022/02/19 09:52:07;;;;;;;;;;;14.00;63.50;;;;;;5072117;28;19912;-75
2022/02/19 09:54:32;;;;;;;;;;;12.90;63.10;;;;;;5069066;28;20581;-77
2022/02/19 09:56:58;;;;;;;;;;;13.40;63.10;;;;;;5061388;28;19966;-76
2022/02/19 09:59:23;;;;;;;;;;;13.80;59.30;;;;;;5070704;28;20250;-76
2022/02/19 10:01:59;;;;;;;;;;;12.50;59.60;;;;;;5070952;28;19919;-76
2022/02/19 10:04:25;;;;;;;;;;;12.30;62.30;;;;;;5069371;28;19909;-76
2022/02/19 10:06:50;;;;;;;;;;;12.80;62.70;;;;;;5073942;28;19912;-76
2022/02/19 10:09:17;;;;;;;;;;;11.90;64.00;;;;;;5074030;28;20392;-76
2022/02/19 10:11:43;;;;;;;;;;;11.20;63.50;;;;;;5074856;28;20365;-77
2022/02/19 10:14:19;;;;;;;;;;;11.50;65.10;;;;;;5077874;28;20007;-77
2022/02/19 10:17:01;;;;;;;;;;;12.70;63.70;;;;;;5071016;28;19917;-77
2022/02/19 10:19:27;;;;;;;;;;;12.00;61.90;;;;;;5072388;28;20092;-78
2022/02/19 10:22:07;;;;;;;;;;;9.50;68.20;;;;;;5085369;28;19915;-77
2022/02/19 10:24:36;;;;;;;;;;;7.80;73.30;;;;;;5070919;28;20299;-76
2022/02/19 10:27:02;;;;;;;;;;;6.80;76.30;;;;;;5071601;28;19908;-76
2022/02/19 10:29:30;;;;;;;;;;;6.50;77.90;;;;;;5071370;28;20058;-76
2022/02/19 10:31:56;;;;;;;;;;;6.80;77.20;;;;;;5071198;28;20297;-76
2022/02/19 10:34:21;;;;;;;;;;;6.60;77.60;;;;;;5071353;28;19962;-77
2022/02/19 10:36:49;;;;;;;;;;;10.30;70.20;;;;;;5070406;28;19943;-77
2022/02/19 10:39:24;;;;;;;;;;;12.10;63.00;;;;;;5074467;28;19908;-77
2022/02/19 10:41:49;;;;;;;;;;;13.10;61.90;;;;;;5072188;28;19931;-77
2022/02/19 10:44:29;;;;;;;;;;;11.20;62.00;;;;;;5078545;28;19908;-77
2022/02/19 10:46:56;;;;;;;;;;;11.30;64.70;;;;;;5072914;28;20011;-77
2022/02/19 10:49:23;;;;;;;;;;;9.40;67.90;;;;;;5069901;28;20406;-77
2022/02/19 10:51:48;;;;;;;;;;;7.80;72.70;;;;;;5073579;28;19912;-76
2022/02/19 10:54:18;;;;;;;;;;;7.00;75.20;;;;;;5066978;28;19988;-77
2022/02/19 10:56:43;;;;;;;;;;;6.60;76.70;;;;;;5072330;28;19908;-77
2022/02/19 10:59:11;;;;;;;;;;;7.40;76.80;;;;;;5072386;28;20483;-77
2022/02/19 11:01:38;;;;;;;;;;;7.50;76.20;;;;;;5072054;28;19912;-77
2022/02/19 11:04:03;;;;;;;;;;;6.90;76.70;;;;;;5066720;28;19908;-77
2022/02/19 11:06:29;;;;;;;;;;;6.80;76.60;;;;;;5074075;28;19931;-77
2022/02/19 11:08:56;;;;;;;;;;;6.70;76.90;;;;;;5072382;28;19908;-77
2022/02/19 11:11:22;;;;;;;;;;;6.30;77.80;;;;;;5073818;28;19916;-76
2022/02/19 11:13:47;;;;;;;;;;;5.90;78.20;;;;;;5076905;28;19909;-77
2022/02/19 11:16:13;;;;;;;;;;;6.20;79.20;;;;;;5076754;28;20373;-76
2022/02/19 11:18:39;;;;;;;;;;;6.50;77.80;;;;;;5085695;28;19908;-77
2022/02/19 11:21:05;;;;;;;;;;;10.40;70.40;;;;;;5079300;28;19909;-77
2022/02/19 11:23:32;;;;;;;;;;;12.90;62.00;;;;;;5073676;28;19909;-75
2022/02/19 11:25:58;;;;;;;;;;;13.40;59.50;;;;;;5073438;28;20487;-77
2022/02/19 11:28:25;;;;;;;;;;;12.80;62.20;;;;;;5074910;28;19918;-78
2022/02/19 11:30:54;;;;;;;;;;;12.90;60.70;;;;;;5074787;28;19912;-75
2022/02/19 11:33:20;;;;;;;;;;;13.40;61.50;;;;;;5074504;28;19912;-77
2022/02/19 11:35:46;;;;;;;;;;;14.30;59.00;;;;;;5074490;28;20419;-77
2022/02/19 11:38:32;;;;;;;;;;;14.60;56.80;;;;;;5074060;28;19913;-77
2022/02/19 11:40:59;;;;;;;;;;;12.90;60.80;;;;;;5054012;28;19908;-78
2022/02/19 11:43:32;;;;;;;;;;;15.00;58.30;;;;;;5075012;28;19948;-78
2022/02/19 11:45:59;;;;;;;;;;;14.80;56.80;;;;;;5074717;28;19916;-78
2022/02/19 11:48:27;;;;;;;;;;;13.90;56.20;;;;;;5073844;28;20254;-78
2022/02/19 11:51:08;;;;;;;;;;;10.70;62.10;;;;;;5072287;28;20357;-78
2022/02/19 11:53:34;;;;;;;;;;;9.10;67.90;;;;;;5072603;28;19908;-76
2022/02/19 11:56:00;;;;;;;;;;;7.90;71.40;;;;;;5072834;28;19920;-77
2022/02/19 11:58:26;;;;;;;;;;;7.50;72.70;;;;;;5072417;28;19912;-76
2022/02/19 12:00:55;;;;;;;;;;;7.20;73.40;;;;;;5072376;28;19916;-77
2022/02/19 12:03:30;;;;;;;;;;;6.90;73.30;;;;;;5072350;28;19921;-77
2022/02/19 12:06:15;;;;;;;;;;;6.70;75.00;;;;;;5072336;28;19959;-76
2022/02/19 12:08:51;;;;;;;;;;;6.60;76.30;;;;;;5070765;28;20357;-77
2022/02/19 12:11:25;;;;;;;;;;;6.70;76.30;;;;;;5072287;28;19956;-77
2022/02/19 12:13:55;;;;;;;;;;;6.80;76.30;;;;;;5069911;28;19913;-77
2022/02/19 12:16:39;;;;;;;;;;;6.60;75.30;;;;;;5070052;28;19917;-77
2022/02/19 12:19:05;;;;;;;;;;;6.60;76.40;;;;;;5071782;28;19909;-77
2022/02/19 12:21:43;;;;;;;;;;;6.90;75.30;;;;;;5067884;28;20395;-76
2022/02/19 12:24:12;;;;;;;;;;;6.90;75.60;;;;;;5070685;28;20004;-77
2022/02/19 12:26:57;;;;;;;;;;;7.10;77.10;;;;;;5070296;28;20269;-77
2022/02/19 12:29:32;;;;;;;;;;;7.10;75.80;;;;;;5051957;28;19916;-77
2022/02/19 12:32:08;;;;;;;;;;;7.00;76.50;;;;;;5071491;28;19916;-78
2022/02/19 12:34:38;;;;;;;;;;;7.10;77.20;;;;;;5071365;28;19908;-77
2022/02/19 12:37:05;;;;;;;;;;;7.20;75.20;;;;;;5071495;28;19920;-77
2022/02/19 12:39:33;;;;;;;;;;;6.90;74.00;;;;;;5071675;28;20000;-75
2022/02/19 12:41:58;;;;;;;;;;;6.60;75.90;;;;;;5071718;28;19908;-78
2022/02/19 12:44:24;;;;;;;;;;;6.60;76.20;;;;;;5071729;28;20011;-78
2022/02/19 12:46:54;;;;;;;;;;;6.70;77.00;;;;;;5071366;28;20312;-77
2022/02/19 12:49:20;;;;;;;;;;;6.60;76.10;;;;;;5071600;28;20384;-76
2022/02/19 12:51:55;;;;;;;;;;;6.60;75.50;;;;;;5070756;28;19920;-76
2022/02/19 12:54:37;;;;;;;;;;;6.80;77.90;;;;;;5071078;28;19909;-77
2022/02/19 12:57:04;;;;;;;;;;;6.70;74.10;;;;;;5064969;28;19940;-76
2022/02/19 12:59:30;;;;;;;;;;;6.70;74.50;;;;;;5064909;28;20305;-76
2022/02/19 13:01:58;;;;;;;;;;;6.70;73.10;;;;;;5071170;28;20014;-76
2022/02/19 13:04:27;;;;;;;;;;;6.80;72.50;;;;;;5070933;28;19923;-75
2022/02/19 13:06:53;;;;;;;;;;;6.80;73.00;;;;;;5071230;28;19915;-77
2022/02/19 13:09:20;;;;;;;;;;;6.80;73.50;;;;;;5064906;28;19915;-77
2022/02/19 13:11:45;;;;;;;;;;;6.90;73.60;;;;;;5071305;28;19913;-75
2022/02/19 13:14:11;;;;;;;;;;;6.80;73.20;;;;;;5070862;28;19974;-77
2022/02/19 13:16:37;;;;;;;;;;;6.80;72.80;;;;;;5064473;28;19917;-77
2022/02/19 13:19:02;;;;;;;;;;;6.80;72.60;;;;;;5070880;28;19977;-77
2022/02/19 13:21:29;;;;;;;;;;;6.70;74.10;;;;;;5069868;28;19935;-76
2022/02/19 13:23:58;;;;;;;;;;;6.80;74.80;;;;;;5062803;28;20357;-77
2022/02/19 13:26:31;;;;;;;;;;;6.70;73.40;;;;;;5071308;28;19908;-78
2022/02/19 13:28:58;;;;;;;;;;;6.70;74.20;;;;;;5067226;28;19948;-77
2022/02/19 13:31:23;;;;;;;;;;;6.70;74.60;;;;;;5067997;28;19920;-76
2022/02/19 13:33:50;;;;;;;;;;;6.70;76.70;;;;;;5071498;28;19916;-77
2022/02/19 13:36:17;;;;;;;;;;;6.70;75.60;;;;;;5061130;28;19913;-77
2022/02/19 13:38:43;;;;;;;;;;;6.70;74.30;;;;;;5065316;28;19908;-77
2022/02/19 13:41:09;;;;;;;;;;;6.60;74.40;;;;;;5068201;28;19920;-77
2022/02/19 13:43:34;;;;;;;;;;;6.80;74.50;;;;;;5066929;28;19913;-76
2022/02/19 13:46:16;;;;;;;;;;;6.80;74.00;;;;;;5067183;28;19915;-77
2022/02/19 13:48:43;;;;;;;;;;;6.80;75.10;;;;;;5059105;28;19913;-76
2022/02/19 13:51:08;;;;;;;;;;;6.90;75.30;;;;;;5071498;28;19912;-76
2022/02/19 13:53:39;;;;;;;;;;;6.80;73.20;;;;;;5074259;28;19908;-77
2022/02/19 13:56:06;;;;;;;;;;;6.80;73.00;;;;;;5070596;28;20266;-76
2022/02/19 13:58:31;;;;;;;;;;;6.80;71.90;;;;;;5075665;28;20391;-77
2022/02/19 14:01:09;;;;;;;;;;;7.00;72.80;;;;;;5074910;28;19909;-77
2022/02/19 14:03:48;;;;;;;;;;;6.90;74.00;;;;;;5074698;28;19999;-77
2022/02/19 14:06:25;;;;;;;;;;;7.00;74.50;;;;;;5074386;28;20373;-77
2022/02/19 14:09:08;;;;;;;;;;;6.90;74.50;;;;;;5074847;28;19912;-75
2022/02/19 14:11:34;;;;;;;;;;;6.90;74.40;;;;;;5057014;28;19922;-76
2022/02/19 14:13:59;;;;;;;;;;;6.90;74.60;;;;;;5066354;28;19913;-77
2022/02/19 14:16:25;;;;;;;;;;;6.90;74.30;;;;;;5074684;28;20323;-76
2022/02/19 14:19:00;;;;;;;;;;;6.60;74.00;;;;;;5075022;28;20414;-77
2022/02/19 14:21:25;;;;;;;;;;;6.30;73.50;;;;;;5068272;28;20337;-77
2022/02/19 14:24:04;;;;;;;;;;;6.30;74.30;;;;;;5073596;28;19966;-78
2022/02/19 14:26:30;;;;;;;;;;;6.40;74.70;;;;;;5070016;28;19974;-77
2022/02/19 14:28:56;;;;;;;;;;;6.60;73.50;;;;;;5074289;28;20369;-75
2022/02/19 14:31:22;;;;;;;;;;;6.80;73.80;;;;;;5074589;28;20280;-77
2022/02/19 14:33:47;;;;;;;;;;;6.80;71.70;;;;;;5074274;28;19995;-77
2022/02/19 14:36:18;;;;;;;;;;;6.90;72.00;;;;;;5073776;28;19909;-77